sensor_id;sensor_type;location;lat;lon;timestamp;P1;durP1;ratioP1;P2;durP2;ratioP2
49514;SDS011;35415;47.870;16.058;2022-08-03T00:01:07;3.85;;;2.30;;
49514;SDS011;35415;47.870;16.058;2022-08-03T00:03:34;2.45;;;2.25;;
49514;SDS011;35415;47.870;16.058;2022-08-03T00:06:01;4.00;;;2.60;;
49514;SDS011;35415;47.870;16.058;2022-08-03T00:08:28;2.45;;;2.03;;
49514;SDS011;35415;47.870;16.058;2022-08-03T00:10:55;5.63;;;2.35;;
49514;SDS011;35415;47.870;16.058;2022-08-03T00:13:24;2.92;;;2.60;;
49514;SDS011;35415;47.870;16.058;2022-08-03T00:15:52;2.40;;;2.20;;
49514;SDS011;35415;47.870;16.058;2022-08-03T00:18:19;3.38;;;2.47;;
49514;SDS011;35415;47.870;16.058;2022-08-03T00:20:46;2.58;;;2.15;;
49514;SDS011;35415;47.870;16.058;2022-08-03T00:23:14;2.80;;;2.17;;
49514;SDS011;35415;47.870;16.058;2022-08-03T00:25:41;4.47;;;2.50;;
49514;SDS011;35415;47.870;16.058;2022-08-03T00:28:08;3.38;;;2.40;;
49514;SDS011;35415;47.870;16.058;2022-08-03T00:30:37;2.60;;;2.30;;
49514;SDS011;35415;47.870;16.058;2022-08-03T00:33:04;2.53;;;2.28;;
49514;SDS011;35415;47.870;16.058;2022-08-03T00:35:31;3.03;;;2.25;;
49514;SDS011;35415;47.870;16.058;2022-08-03T00:37:58;2.35;;;2.15;;
49514;SDS011;35415;47.870;16.058;2022-08-03T00:40:28;2.60;;;2.40;;
49514;SDS011;35415;47.870;16.058;2022-08-03T00:42:56;2.92;;;2.40;;
49514;SDS011;35415;47.870;16.058;2022-08-03T00:45:25;2.80;;;2.53;;
49514;SDS011;35415;47.870;16.058;2022-08-03T00:47:55;2.28;;;2.10;;
49514;SDS011;35415;47.870;16.058;2022-08-03T00:50:24;2.63;;;2.38;;
49514;SDS011;35415;47.870;16.058;2022-08-03T00:52:54;2.65;;;2.45;;
49514;SDS011;35415;47.870;16.058;2022-08-03T00:55:23;3.03;;;2.30;;
49514;SDS011;35415;47.870;16.058;2022-08-03T00:57:50;3.05;;;2.40;;
49514;SDS011;35415;47.870;16.058;2022-08-03T01:00:18;5.15;;;2.30;;
49514;SDS011;35415;47.870;16.058;2022-08-03T01:02:48;2.80;;;2.22;;
49514;SDS011;35415;47.870;16.058;2022-08-03T01:05:18;2.88;;;2.55;;
49514;SDS011;35415;47.870;16.058;2022-08-03T01:07:50;3.00;;;2.55;;
49514;SDS011;35415;47.870;16.058;2022-08-03T01:10:27;3.95;;;2.22;;
49514;SDS011;35415;47.870;16.058;2022-08-03T01:13:06;5.50;;;2.58;;
49514;SDS011;35415;47.870;16.058;2022-08-03T01:15:49;2.83;;;2.45;;
49514;SDS011;35415;47.870;16.058;2022-08-03T01:18:25;3.70;;;2.45;;
49514;SDS011;35415;47.870;16.058;2022-08-03T01:20:59;2.25;;;2.05;;
49514;SDS011;35415;47.870;16.058;2022-08-03T01:23:47;2.92;;;2.53;;
49514;SDS011;35415;47.870;16.058;2022-08-03T01:26:32;3.25;;;2.30;;
49514;SDS011;35415;47.870;16.058;2022-08-03T01:32:15;3.08;;;2.38;;
49514;SDS011;35415;47.870;16.058;2022-08-03T01:34:46;2.88;;;2.47;;
49514;SDS011;35415;47.870;16.058;2022-08-03T01:37:19;5.10;;;3.13;;
49514;SDS011;35415;47.870;16.058;2022-08-03T01:42:18;2.92;;;2.63;;
49514;SDS011;35415;47.870;16.058;2022-08-03T01:44:47;3.90;;;2.42;;
49514;SDS011;35415;47.870;16.058;2022-08-03T01:47:18;2.90;;;2.40;;
49514;SDS011;35415;47.870;16.058;2022-08-03T01:49:46;4.03;;;2.55;;
49514;SDS011;35415;47.870;16.058;2022-08-03T01:52:17;2.53;;;2.33;;
49514;SDS011;35415;47.870;16.058;2022-08-03T01:54:47;3.33;;;2.58;;
49514;SDS011;35415;47.870;16.058;2022-08-03T01:57:17;4.28;;;2.60;;
49514;SDS011;35415;47.870;16.058;2022-08-03T01:59:48;3.13;;;2.83;;
49514;SDS011;35415;47.870;16.058;2022-08-03T02:02:16;4.03;;;2.70;;
49514;SDS011;35415;47.870;16.058;2022-08-03T02:04:44;4.35;;;2.88;;
49514;SDS011;35415;47.870;16.058;2022-08-03T02:07:14;3.78;;;2.65;;
49514;SDS011;35415;47.870;16.058;2022-08-03T02:09:43;4.43;;;2.78;;
49514;SDS011;35415;47.870;16.058;2022-08-03T02:12:12;2.67;;;2.40;;
49514;SDS011;35415;47.870;16.058;2022-08-03T02:14:41;3.83;;;2.50;;
49514;SDS011;35415;47.870;16.058;2022-08-03T02:17:12;3.33;;;3.03;;
49514;SDS011;35415;47.870;16.058;2022-08-03T02:19:41;2.90;;;2.50;;
49514;SDS011;35415;47.870;16.058;2022-08-03T02:22:10;2.88;;;2.67;;
49514;SDS011;35415;47.870;16.058;2022-08-03T02:24:38;2.60;;;2.40;;
49514;SDS011;35415;47.870;16.058;2022-08-03T02:27:07;3.05;;;2.75;;
49514;SDS011;35415;47.870;16.058;2022-08-03T02:29:41;2.83;;;2.53;;
49514;SDS011;35415;47.870;16.058;2022-08-03T02:32:16;3.80;;;2.33;;
49514;SDS011;35415;47.870;16.058;2022-08-03T02:34:47;3.95;;;2.70;;
49514;SDS011;35415;47.870;16.058;2022-08-03T02:37:17;4.20;;;2.88;;
49514;SDS011;35415;47.870;16.058;2022-08-03T02:39:46;4.40;;;2.97;;
49514;SDS011;35415;47.870;16.058;2022-08-03T02:42:17;3.00;;;2.80;;
49514;SDS011;35415;47.870;16.058;2022-08-03T02:44:48;2.67;;;2.47;;
49514;SDS011;35415;47.870;16.058;2022-08-03T02:47:20;2.50;;;2.30;;
49514;SDS011;35415;47.870;16.058;2022-08-03T02:49:48;4.18;;;2.85;;
49514;SDS011;35415;47.870;16.058;2022-08-03T02:52:19;3.08;;;2.78;;
49514;SDS011;35415;47.870;16.058;2022-08-03T02:54:51;3.83;;;2.40;;
49514;SDS011;35415;47.870;16.058;2022-08-03T02:57:24;2.88;;;2.67;;
49514;SDS011;35415;47.870;16.058;2022-08-03T02:59:54;3.17;;;2.88;;
49514;SDS011;35415;47.870;16.058;2022-08-03T03:02:25;2.92;;;2.60;;
49514;SDS011;35415;47.870;16.058;2022-08-03T03:04:54;3.13;;;2.83;;
49514;SDS011;35415;47.870;16.058;2022-08-03T03:07:26;2.97;;;2.78;;
49514;SDS011;35415;47.870;16.058;2022-08-03T03:09:54;3.17;;;2.88;;
49514;SDS011;35415;47.870;16.058;2022-08-03T03:12:24;2.67;;;2.47;;
49514;SDS011;35415;47.870;16.058;2022-08-03T03:14:53;3.90;;;2.77;;
49514;SDS011;35415;47.870;16.058;2022-08-03T03:17:20;4.05;;;2.78;;
49514;SDS011;35415;47.870;16.058;2022-08-03T03:19:49;4.75;;;2.80;;
49514;SDS011;35415;47.870;16.058;2022-08-03T03:22:17;4.55;;;2.67;;
49514;SDS011;35415;47.870;16.058;2022-08-03T03:24:46;2.75;;;2.50;;
49514;SDS011;35415;47.870;16.058;2022-08-03T03:27:15;3.30;;;2.53;;
49514;SDS011;35415;47.870;16.058;2022-08-03T03:29:43;3.10;;;2.70;;
49514;SDS011;35415;47.870;16.058;2022-08-03T03:32:11;2.97;;;2.78;;
49514;SDS011;35415;47.870;16.058;2022-08-03T03:34:38;3.10;;;2.80;;
49514;SDS011;35415;47.870;16.058;2022-08-03T03:37:07;2.83;;;2.60;;
49514;SDS011;35415;47.870;16.058;2022-08-03T03:39:34;4.07;;;3.17;;
49514;SDS011;35415;47.870;16.058;2022-08-03T03:42:02;4.85;;;2.70;;
49514;SDS011;35415;47.870;16.058;2022-08-03T03:44:30;3.75;;;2.78;;
49514;SDS011;35415;47.870;16.058;2022-08-03T03:46:57;3.10;;;2.55;;
49514;SDS011;35415;47.870;16.058;2022-08-03T03:49:24;4.85;;;2.45;;
49514;SDS011;35415;47.870;16.058;2022-08-03T03:51:52;3.40;;;2.90;;
49514;SDS011;35415;47.870;16.058;2022-08-03T03:54:21;3.00;;;2.70;;
49514;SDS011;35415;47.870;16.058;2022-08-03T03:56:48;3.15;;;2.85;;
49514;SDS011;35415;47.870;16.058;2022-08-03T03:59:15;2.42;;;2.20;;
49514;SDS011;35415;47.870;16.058;2022-08-03T04:01:42;3.45;;;2.83;;
49514;SDS011;35415;47.870;16.058;2022-08-03T04:04:10;3.85;;;2.53;;
49514;SDS011;35415;47.870;16.058;2022-08-03T04:06:54;3.30;;;2.83;;
49514;SDS011;35415;47.870;16.058;2022-08-03T04:09:40;3.75;;;2.85;;
49514;SDS011;35415;47.870;16.058;2022-08-03T04:12:27;3.13;;;2.83;;
49514;SDS011;35415;47.870;16.058;2022-08-03T04:14:56;2.97;;;2.60;;
49514;SDS011;35415;47.870;16.058;2022-08-03T04:17:26;3.30;;;3.00;;
49514;SDS011;35415;47.870;16.058;2022-08-03T04:19:55;8.07;;;3.30;;
49514;SDS011;35415;47.870;16.058;2022-08-03T04:22:24;4.55;;;2.90;;
49514;SDS011;35415;47.870;16.058;2022-08-03T04:24:59;4.65;;;2.92;;
49514;SDS011;35415;47.870;16.058;2022-08-03T04:27:30;6.38;;;2.92;;
49514;SDS011;35415;47.870;16.058;2022-08-03T04:30:02;3.10;;;2.70;;
49514;SDS011;35415;47.870;16.058;2022-08-03T04:32:31;3.05;;;2.75;;
49514;SDS011;35415;47.870;16.058;2022-08-03T04:34:58;3.08;;;2.65;;
49514;SDS011;35415;47.870;16.058;2022-08-03T04:37:28;3.88;;;2.50;;
49514;SDS011;35415;47.870;16.058;2022-08-03T04:40:06;4.32;;;2.75;;
49514;SDS011;35415;47.870;16.058;2022-08-03T04:42:36;5.40;;;2.97;;
49514;SDS011;35415;47.870;16.058;2022-08-03T04:45:05;3.20;;;2.65;;
49514;SDS011;35415;47.870;16.058;2022-08-03T04:47:33;2.30;;;2.10;;
49514;SDS011;35415;47.870;16.058;2022-08-03T04:50:02;3.40;;;3.10;;
49514;SDS011;35415;47.870;16.058;2022-08-03T04:52:30;2.80;;;2.50;;
49514;SDS011;35415;47.870;16.058;2022-08-03T04:54:58;2.70;;;2.40;;
49514;SDS011;35415;47.870;16.058;2022-08-03T04:57:27;3.08;;;2.45;;
49514;SDS011;35415;47.870;16.058;2022-08-03T04:59:54;3.05;;;2.75;;
49514;SDS011;35415;47.870;16.058;2022-08-03T05:02:21;3.15;;;2.85;;
49514;SDS011;35415;47.870;16.058;2022-08-03T05:04:49;4.45;;;2.47;;
49514;SDS011;35415;47.870;16.058;2022-08-03T05:07:16;3.30;;;3.00;;
49514;SDS011;35415;47.870;16.058;2022-08-03T05:09:44;3.72;;;2.70;;
49514;SDS011;35415;47.870;16.058;2022-08-03T05:12:11;3.50;;;3.20;;
49514;SDS011;35415;47.870;16.058;2022-08-03T05:14:40;3.30;;;3.00;;
49514;SDS011;35415;47.870;16.058;2022-08-03T05:17:07;2.80;;;2.50;;
49514;SDS011;35415;47.870;16.058;2022-08-03T05:19:34;3.08;;;2.78;;
49514;SDS011;35415;47.870;16.058;2022-08-03T05:22:01;6.03;;;2.80;;
49514;SDS011;35415;47.870;16.058;2022-08-03T05:24:28;3.65;;;2.67;;
49514;SDS011;35415;47.870;16.058;2022-08-03T05:26:55;4.07;;;2.95;;
49514;SDS011;35415;47.870;16.058;2022-08-03T05:29:22;3.05;;;2.83;;
49514;SDS011;35415;47.870;16.058;2022-08-03T05:31:51;2.78;;;2.42;;
49514;SDS011;35415;47.870;16.058;2022-08-03T05:34:18;3.30;;;2.70;;
49514;SDS011;35415;47.870;16.058;2022-08-03T05:36:45;3.28;;;2.80;;
49514;SDS011;35415;47.870;16.058;2022-08-03T05:39:12;3.90;;;2.92;;
49514;SDS011;35415;47.870;16.058;2022-08-03T05:41:39;3.95;;;2.33;;
49514;SDS011;35415;47.870;16.058;2022-08-03T05:44:06;2.80;;;2.60;;
49514;SDS011;35415;47.870;16.058;2022-08-03T05:46:33;3.10;;;2.80;;
49514;SDS011;35415;47.870;16.058;2022-08-03T05:49:01;2.97;;;2.63;;
49514;SDS011;35415;47.870;16.058;2022-08-03T05:51:28;3.65;;;2.83;;
49514;SDS011;35415;47.870;16.058;2022-08-03T05:53:55;3.10;;;2.35;;
49514;SDS011;35415;47.870;16.058;2022-08-03T05:56:23;3.63;;;2.95;;
49514;SDS011;35415;47.870;16.058;2022-08-03T05:58:50;2.78;;;2.50;;
49514;SDS011;35415;47.870;16.058;2022-08-03T06:01:17;3.75;;;2.92;;
49514;SDS011;35415;47.870;16.058;2022-08-03T06:03:47;3.05;;;2.60;;
49514;SDS011;35415;47.870;16.058;2022-08-03T06:06:18;3.10;;;2.63;;
49514;SDS011;35415;47.870;16.058;2022-08-03T06:08:45;6.15;;;3.20;;
49514;SDS011;35415;47.870;16.058;2022-08-03T06:11:13;2.83;;;2.50;;
49514;SDS011;35415;47.870;16.058;2022-08-03T06:13:40;2.63;;;2.42;;
49514;SDS011;35415;47.870;16.058;2022-08-03T06:16:08;3.92;;;2.28;;
49514;SDS011;35415;47.870;16.058;2022-08-03T06:18:35;4.43;;;2.70;;
49514;SDS011;35415;47.870;16.058;2022-08-03T06:21:03;2.88;;;2.53;;
49514;SDS011;35415;47.870;16.058;2022-08-03T06:23:32;3.17;;;2.63;;
49514;SDS011;35415;47.870;16.058;2022-08-03T06:25:59;2.63;;;2.40;;
49514;SDS011;35415;47.870;16.058;2022-08-03T06:28:27;2.42;;;2.22;;
49514;SDS011;35415;47.870;16.058;2022-08-03T06:30:54;2.55;;;2.35;;
49514;SDS011;35415;47.870;16.058;2022-08-03T06:33:21;2.88;;;2.58;;
49514;SDS011;35415;47.870;16.058;2022-08-03T06:35:50;2.40;;;2.20;;
49514;SDS011;35415;47.870;16.058;2022-08-03T06:38:16;3.15;;;2.28;;
49514;SDS011;35415;47.870;16.058;2022-08-03T06:40:45;3.80;;;2.03;;
49514;SDS011;35415;47.870;16.058;2022-08-03T06:43:12;4.88;;;2.38;;
49514;SDS011;35415;47.870;16.058;2022-08-03T06:45:39;3.20;;;2.50;;
49514;SDS011;35415;47.870;16.058;2022-08-03T06:48:07;2.40;;;2.20;;
49514;SDS011;35415;47.870;16.058;2022-08-03T06:50:37;6.28;;;3.33;;
49514;SDS011;35415;47.870;16.058;2022-08-03T06:53:06;2.30;;;2.10;;
49514;SDS011;35415;47.870;16.058;2022-08-03T06:55:34;2.40;;;2.20;;
49514;SDS011;35415;47.870;16.058;2022-08-03T06:58:03;2.35;;;2.03;;
49514;SDS011;35415;47.870;16.058;2022-08-03T07:00:30;2.42;;;2.20;;
49514;SDS011;35415;47.870;16.058;2022-08-03T07:02:57;4.72;;;1.90;;
49514;SDS011;35415;47.870;16.058;2022-08-03T07:05:24;3.13;;;2.35;;
49514;SDS011;35415;47.870;16.058;2022-08-03T07:07:54;2.58;;;2.20;;
49514;SDS011;35415;47.870;16.058;2022-08-03T07:10:27;3.17;;;2.50;;
49514;SDS011;35415;47.870;16.058;2022-08-03T07:12:55;2.58;;;2.38;;
49514;SDS011;35415;47.870;16.058;2022-08-03T07:15:26;3.33;;;2.38;;
49514;SDS011;35415;47.870;16.058;2022-08-03T07:17:53;2.50;;;2.30;;
49514;SDS011;35415;47.870;16.058;2022-08-03T07:20:20;2.92;;;1.88;;
49514;SDS011;35415;47.870;16.058;2022-08-03T07:22:47;2.65;;;2.45;;
49514;SDS011;35415;47.870;16.058;2022-08-03T07:25:14;2.33;;;2.13;;
49514;SDS011;35415;47.870;16.058;2022-08-03T07:27:42;2.60;;;2.40;;
49514;SDS011;35415;47.870;16.058;2022-08-03T07:30:09;2.33;;;2.13;;
49514;SDS011;35415;47.870;16.058;2022-08-03T07:32:38;2.67;;;2.00;;
49514;SDS011;35415;47.870;16.058;2022-08-03T07:35:07;13.63;;;2.72;;
49514;SDS011;35415;47.870;16.058;2022-08-03T07:37:35;2.30;;;1.60;;
49514;SDS011;35415;47.870;16.058;2022-08-03T07:40:03;3.03;;;1.48;;
49514;SDS011;35415;47.870;16.058;2022-08-03T07:42:32;1.45;;;1.35;;
49514;SDS011;35415;47.870;16.058;2022-08-03T07:44:58;1.58;;;1.48;;
49514;SDS011;35415;47.870;16.058;2022-08-03T07:47:26;1.27;;;1.17;;
49514;SDS011;35415;47.870;16.058;2022-08-03T07:49:56;1.40;;;1.30;;
49514;SDS011;35415;47.870;16.058;2022-08-03T07:52:26;1.30;;;1.20;;
49514;SDS011;35415;47.870;16.058;2022-08-03T07:55:13;2.63;;;1.13;;
49514;SDS011;35415;47.870;16.058;2022-08-03T07:57:42;3.00;;;1.30;;
49514;SDS011;35415;47.870;16.058;2022-08-03T08:00:12;1.67;;;1.20;;
49514;SDS011;35415;47.870;16.058;2022-08-03T08:02:41;2.15;;;1.33;;
49514;SDS011;35415;47.870;16.058;2022-08-03T08:05:10;1.30;;;1.20;;
49514;SDS011;35415;47.870;16.058;2022-08-03T08:07:38;1.45;;;1.20;;
49514;SDS011;35415;47.870;16.058;2022-08-03T08:10:07;2.33;;;1.20;;
49514;SDS011;35415;47.870;16.058;2022-08-03T08:12:35;3.53;;;1.40;;
49514;SDS011;35415;47.870;16.058;2022-08-03T08:15:09;1.33;;;1.27;;
49514;SDS011;35415;47.870;16.058;2022-08-03T08:17:40;2.20;;;1.27;;
49514;SDS011;35415;47.870;16.058;2022-08-03T08:20:14;1.02;;;0.93;;
49514;SDS011;35415;47.870;16.058;2022-08-03T08:22:42;1.23;;;1.13;;
49514;SDS011;35415;47.870;16.058;2022-08-03T08:25:09;2.20;;;1.33;;
49514;SDS011;35415;47.870;16.058;2022-08-03T08:27:40;1.20;;;1.10;;
49514;SDS011;35415;47.870;16.058;2022-08-03T08:32:36;1.40;;;1.30;;
49514;SDS011;35415;47.870;16.058;2022-08-03T08:35:05;2.17;;;1.42;;
49514;SDS011;35415;47.870;16.058;2022-08-03T08:37:34;1.60;;;1.50;;
49514;SDS011;35415;47.870;16.058;2022-08-03T08:40:02;1.67;;;1.33;;
49514;SDS011;35415;47.870;16.058;2022-08-03T08:42:30;1.80;;;1.70;;
49514;SDS011;35415;47.870;16.058;2022-08-03T08:44:58;3.08;;;1.80;;
49514;SDS011;35415;47.870;16.058;2022-08-03T08:47:28;1.77;;;1.67;;
49514;SDS011;35415;47.870;16.058;2022-08-03T08:49:57;2.67;;;1.50;;
49514;SDS011;35415;47.870;16.058;2022-08-03T08:52:26;1.65;;;1.50;;
49514;SDS011;35415;47.870;16.058;2022-08-03T08:54:57;1.80;;;1.70;;
49514;SDS011;35415;47.870;16.058;2022-08-03T08:57:28;3.47;;;1.70;;
49514;SDS011;35415;47.870;16.058;2022-08-03T08:59:59;3.58;;;1.77;;
49514;SDS011;35415;47.870;16.058;2022-08-03T09:02:28;2.65;;;1.52;;
49514;SDS011;35415;47.870;16.058;2022-08-03T09:04:56;2.92;;;1.70;;
49514;SDS011;35415;47.870;16.058;2022-08-03T09:07:24;1.70;;;1.60;;
49514;SDS011;35415;47.870;16.058;2022-08-03T09:09:53;1.63;;;1.52;;
49514;SDS011;35415;47.870;16.058;2022-08-03T09:12:23;1.55;;;1.45;;
49514;SDS011;35415;47.870;16.058;2022-08-03T09:14:51;3.17;;;1.60;;
49514;SDS011;35415;47.870;16.058;2022-08-03T09:17:20;3.97;;;1.80;;
49514;SDS011;35415;47.870;16.058;2022-08-03T09:20:03;1.42;;;1.33;;
49514;SDS011;35415;47.870;16.058;2022-08-03T09:22:33;3.65;;;1.60;;
49514;SDS011;35415;47.870;16.058;2022-08-03T09:25:02;2.55;;;1.40;;
49514;SDS011;35415;47.870;16.058;2022-08-03T09:27:42;1.42;;;1.33;;
49514;SDS011;35415;47.870;16.058;2022-08-03T09:30:13;2.20;;;1.83;;
49514;SDS011;35415;47.870;16.058;2022-08-03T09:32:41;1.55;;;1.30;;
49514;SDS011;35415;47.870;16.058;2022-08-03T09:35:10;1.98;;;1.80;;
49514;SDS011;35415;47.870;16.058;2022-08-03T09:37:41;2.28;;;1.30;;
49514;SDS011;35415;47.870;16.058;2022-08-03T09:40:09;1.45;;;1.35;;
49514;SDS011;35415;47.870;16.058;2022-08-03T09:42:37;3.88;;;1.58;;
49514;SDS011;35415;47.870;16.058;2022-08-03T09:45:26;1.67;;;1.55;;
49514;SDS011;35415;47.870;16.058;2022-08-03T09:47:54;1.58;;;1.48;;
49514;SDS011;35415;47.870;16.058;2022-08-03T09:50:48;1.60;;;1.50;;
49514;SDS011;35415;47.870;16.058;2022-08-03T09:53:16;1.83;;;1.52;;
49514;SDS011;35415;47.870;16.058;2022-08-03T09:55:56;1.77;;;1.50;;
49514;SDS011;35415;47.870;16.058;2022-08-03T09:58:26;2.47;;;1.30;;
49514;SDS011;35415;47.870;16.058;2022-08-03T10:00:57;3.45;;;1.38;;
49514;SDS011;35415;47.870;16.058;2022-08-03T10:03:28;2.13;;;1.77;;
49514;SDS011;35415;47.870;16.058;2022-08-03T10:05:56;3.05;;;1.67;;
49514;SDS011;35415;47.870;16.058;2022-08-03T10:08:24;4.20;;;1.30;;
49514;SDS011;35415;47.870;16.058;2022-08-03T10:10:51;8.88;;;1.85;;
49514;SDS011;35415;47.870;16.058;2022-08-03T10:13:20;2.78;;;1.58;;
49514;SDS011;35415;47.870;16.058;2022-08-03T10:15:49;1.95;;;1.85;;
49514;SDS011;35415;47.870;16.058;2022-08-03T10:18:17;1.58;;;1.45;;
49514;SDS011;35415;47.870;16.058;2022-08-03T10:20:45;3.45;;;1.90;;
49514;SDS011;35415;47.870;16.058;2022-08-03T10:23:18;1.60;;;1.50;;
49514;SDS011;35415;47.870;16.058;2022-08-03T10:25:48;6.53;;;1.60;;
49514;SDS011;35415;47.870;16.058;2022-08-03T10:28:24;1.25;;;1.20;;
49514;SDS011;35415;47.870;16.058;2022-08-03T10:30:53;3.15;;;1.52;;
49514;SDS011;35415;47.870;16.058;2022-08-03T10:33:23;9.20;;;1.73;;
49514;SDS011;35415;47.870;16.058;2022-08-03T10:35:53;2.38;;;1.60;;
49514;SDS011;35415;47.870;16.058;2022-08-03T10:38:24;18.95;;;2.25;;
49514;SDS011;35415;47.870;16.058;2022-08-03T10:40:58;2.65;;;1.60;;
49514;SDS011;35415;47.870;16.058;2022-08-03T10:43:30;1.50;;;1.40;;
49514;SDS011;35415;47.870;16.058;2022-08-03T10:46:07;2.75;;;1.30;;
49514;SDS011;35415;47.870;16.058;2022-08-03T10:48:34;7.63;;;1.50;;
49514;SDS011;35415;47.870;16.058;2022-08-03T10:51:02;2.35;;;1.48;;
49514;SDS011;35415;47.870;16.058;2022-08-03T10:53:35;3.00;;;1.60;;
49514;SDS011;35415;47.870;16.058;2022-08-03T10:56:03;1.40;;;1.30;;
49514;SDS011;35415;47.870;16.058;2022-08-03T10:58:49;1.50;;;1.40;;
49514;SDS011;35415;47.870;16.058;2022-08-03T11:01:19;1.48;;;1.38;;
49514;SDS011;35415;47.870;16.058;2022-08-03T11:04:17;1.50;;;1.40;;
49514;SDS011;35415;47.870;16.058;2022-08-03T11:06:45;2.17;;;1.67;;
49514;SDS011;35415;47.870;16.058;2022-08-03T11:09:15;3.13;;;1.40;;
49514;SDS011;35415;47.870;16.058;2022-08-03T11:11:45;1.60;;;1.50;;
49514;SDS011;35415;47.870;16.058;2022-08-03T11:14:15;1.55;;;1.45;;
49514;SDS011;35415;47.870;16.058;2022-08-03T11:16:47;7.90;;;1.58;;
49514;SDS011;35415;47.870;16.058;2022-08-03T11:19:17;1.50;;;1.40;;
49514;SDS011;35415;47.870;16.058;2022-08-03T11:21:51;2.40;;;1.50;;
49514;SDS011;35415;47.870;16.058;2022-08-03T11:27:37;5.00;;;1.60;;
49514;SDS011;35415;47.870;16.058;2022-08-03T11:30:05;2.20;;;1.50;;
49514;SDS011;35415;47.870;16.058;2022-08-03T11:38:06;2.03;;;1.60;;
49514;SDS011;35415;47.870;16.058;2022-08-03T11:40:35;2.00;;;1.35;;
49514;SDS011;35415;47.870;16.058;2022-08-03T11:43:09;1.45;;;1.35;;
49514;SDS011;35415;47.870;16.058;2022-08-03T11:45:56;2.53;;;1.45;;
49514;SDS011;35415;47.870;16.058;2022-08-03T11:48:27;1.92;;;1.40;;
49514;SDS011;35415;47.870;16.058;2022-08-03T11:51:00;4.68;;;1.70;;
49514;SDS011;35415;47.870;16.058;2022-08-03T11:53:28;1.60;;;1.50;;
49514;SDS011;35415;47.870;16.058;2022-08-03T11:55:59;2.25;;;1.52;;
49514;SDS011;35415;47.870;16.058;2022-08-03T11:58:28;3.65;;;1.50;;
49514;SDS011;35415;47.870;16.058;2022-08-03T12:01:02;2.28;;;1.60;;
49514;SDS011;35415;47.870;16.058;2022-08-03T12:03:32;2.65;;;1.45;;
49514;SDS011;35415;47.870;16.058;2022-08-03T12:06:00;2.95;;;1.55;;
49514;SDS011;35415;47.870;16.058;2022-08-03T12:08:29;4.70;;;1.73;;
49514;SDS011;35415;47.870;16.058;2022-08-03T12:10:58;1.63;;;1.50;;
49514;SDS011;35415;47.870;16.058;2022-08-03T12:13:34;5.30;;;1.75;;
49514;SDS011;35415;47.870;16.058;2022-08-03T12:16:03;3.30;;;1.42;;
49514;SDS011;35415;47.870;16.058;2022-08-03T12:18:32;3.00;;;1.75;;
49514;SDS011;35415;47.870;16.058;2022-08-03T12:21:03;1.65;;;1.55;;
49514;SDS011;35415;47.870;16.058;2022-08-03T12:23:32;1.77;;;1.67;;
49514;SDS011;35415;47.870;16.058;2022-08-03T12:26:00;4.68;;;1.55;;
49514;SDS011;35415;47.870;16.058;2022-08-03T12:28:28;1.50;;;1.40;;
49514;SDS011;35415;47.870;16.058;2022-08-03T12:30:59;1.42;;;1.33;;
49514;SDS011;35415;47.870;16.058;2022-08-03T12:33:27;1.33;;;1.25;;
49514;SDS011;35415;47.870;16.058;2022-08-03T12:36:03;1.30;;;1.20;;
49514;SDS011;35415;47.870;16.058;2022-08-03T12:38:32;2.05;;;1.50;;
49514;SDS011;35415;47.870;16.058;2022-08-03T12:41:02;2.42;;;1.75;;
49514;SDS011;35415;47.870;16.058;2022-08-03T12:43:30;2.50;;;1.50;;
49514;SDS011;35415;47.870;16.058;2022-08-03T12:46:11;52.42;;;5.38;;
49514;SDS011;35415;47.870;16.058;2022-08-03T12:48:58;1.77;;;1.42;;
49514;SDS011;35415;47.870;16.058;2022-08-03T12:51:31;4.40;;;1.30;;
49514;SDS011;35415;47.870;16.058;2022-08-03T12:53:59;2.42;;;1.48;;
49514;SDS011;35415;47.870;16.058;2022-08-03T12:56:27;19.70;;;2.78;;
49514;SDS011;35415;47.870;16.058;2022-08-03T12:58:55;1.88;;;1.58;;
49514;SDS011;35415;47.870;16.058;2022-08-03T13:01:22;1.60;;;1.50;;
49514;SDS011;35415;47.870;16.058;2022-08-03T13:03:52;3.38;;;1.92;;
49514;SDS011;35415;47.870;16.058;2022-08-03T13:06:20;1.70;;;1.50;;
49514;SDS011;35415;47.870;16.058;2022-08-03T13:09:00;2.63;;;1.52;;
49514;SDS011;35415;47.870;16.058;2022-08-03T13:11:29;3.50;;;1.60;;
49514;SDS011;35415;47.870;16.058;2022-08-03T13:13:57;4.43;;;1.40;;
49514;SDS011;35415;47.870;16.058;2022-08-03T13:16:24;1.60;;;1.50;;
49514;SDS011;35415;47.870;16.058;2022-08-03T13:18:51;3.88;;;1.42;;
49514;SDS011;35415;47.870;16.058;2022-08-03T13:21:19;1.70;;;1.60;;
49514;SDS011;35415;47.870;16.058;2022-08-03T13:23:47;1.67;;;1.50;;
49514;SDS011;35415;47.870;16.058;2022-08-03T13:26:15;2.35;;;2.15;;
49514;SDS011;35415;47.870;16.058;2022-08-03T13:28:42;3.20;;;1.83;;
49514;SDS011;35415;47.870;16.058;2022-08-03T13:31:09;2.50;;;1.80;;
49514;SDS011;35415;47.870;16.058;2022-08-03T13:33:37;1.80;;;1.70;;
49514;SDS011;35415;47.870;16.058;2022-08-03T13:36:05;4.10;;;1.70;;
49514;SDS011;35415;47.870;16.058;2022-08-03T13:38:32;1.90;;;1.70;;
49514;SDS011;35415;47.870;16.058;2022-08-03T13:41:00;2.45;;;1.55;;
49514;SDS011;35415;47.870;16.058;2022-08-03T13:43:30;1.50;;;1.40;;
49514;SDS011;35415;47.870;16.058;2022-08-03T13:45:57;3.92;;;1.55;;
49514;SDS011;35415;47.870;16.058;2022-08-03T13:48:24;1.80;;;1.60;;
49514;SDS011;35415;47.870;16.058;2022-08-03T13:50:51;1.90;;;1.67;;
49514;SDS011;35415;47.870;16.058;2022-08-03T13:53:18;1.90;;;1.50;;
49514;SDS011;35415;47.870;16.058;2022-08-03T13:55:45;3.58;;;1.58;;
49514;SDS011;35415;47.870;16.058;2022-08-03T13:58:13;6.82;;;1.75;;
49514;SDS011;35415;47.870;16.058;2022-08-03T14:00:41;3.13;;;1.48;;
49514;SDS011;35415;47.870;16.058;2022-08-03T14:03:08;3.40;;;1.50;;
49514;SDS011;35415;47.870;16.058;2022-08-03T14:05:36;1.50;;;1.40;;
49514;SDS011;35415;47.870;16.058;2022-08-03T14:08:04;3.53;;;1.50;;
49514;SDS011;35415;47.870;16.058;2022-08-03T14:10:33;2.25;;;1.60;;
49514;SDS011;35415;47.870;16.058;2022-08-03T14:13:00;3.08;;;1.40;;
49514;SDS011;35415;47.870;16.058;2022-08-03T14:15:27;1.88;;;1.30;;
49514;SDS011;35415;47.870;16.058;2022-08-03T14:17:56;2.08;;;1.73;;
49514;SDS011;35415;47.870;16.058;2022-08-03T14:20:23;1.70;;;1.60;;
49514;SDS011;35415;47.870;16.058;2022-08-03T14:22:51;5.75;;;1.60;;
49514;SDS011;35415;47.870;16.058;2022-08-03T14:25:18;3.67;;;1.45;;
49514;SDS011;35415;47.870;16.058;2022-08-03T14:27:45;1.73;;;1.60;;
49514;SDS011;35415;47.870;16.058;2022-08-03T14:30:12;7.15;;;2.00;;
49514;SDS011;35415;47.870;16.058;2022-08-03T14:32:40;3.85;;;1.92;;
49514;SDS011;35415;47.870;16.058;2022-08-03T14:35:09;1.95;;;1.83;;
49514;SDS011;35415;47.870;16.058;2022-08-03T14:37:36;2.78;;;1.67;;
49514;SDS011;35415;47.870;16.058;2022-08-03T14:40:04;2.03;;;1.55;;
49514;SDS011;35415;47.870;16.058;2022-08-03T14:42:32;1.50;;;1.40;;
49514;SDS011;35415;47.870;16.058;2022-08-03T14:44:59;2.05;;;1.48;;
49514;SDS011;35415;47.870;16.058;2022-08-03T14:47:27;1.70;;;1.60;;
49514;SDS011;35415;47.870;16.058;2022-08-03T14:49:54;4.38;;;1.75;;
49514;SDS011;35415;47.870;16.058;2022-08-03T14:52:22;1.40;;;1.30;;
49514;SDS011;35415;47.870;16.058;2022-08-03T14:54:49;1.83;;;1.73;;
49514;SDS011;35415;47.870;16.058;2022-08-03T14:57:16;1.90;;;1.80;;
49514;SDS011;35415;47.870;16.058;2022-08-03T14:59:43;2.70;;;1.60;;
49514;SDS011;35415;47.870;16.058;2022-08-03T15:02:10;1.80;;;1.70;;
49514;SDS011;35415;47.870;16.058;2022-08-03T15:04:38;3.53;;;1.90;;